createdAt,value
2018-09-18T00:00:32.340Z,99.90
2018-09-18T00:02:59.533Z,99.90
2018-09-18T00:05:26.737Z,99.90
2018-09-18T00:07:53.932Z,99.90
2018-09-18T00:10:21.132Z,99.90
2018-09-18T00:12:49.420Z,99.90
2018-09-18T00:15:16.668Z,99.90
2018-09-18T00:17:43.880Z,99.90
2018-09-18T00:20:12.208Z,99.90
2018-09-18T00:22:39.672Z,99.90
2018-09-18T00:25:06.916Z,99.90
2018-09-18T00:27:34.113Z,99.90
2018-09-18T00:30:01.323Z,99.90
2018-09-18T00:32:28.547Z,99.90
2018-09-18T00:34:55.736Z,99.90
2018-09-18T00:37:23.010Z,99.90
2018-09-18T00:39:50.393Z,99.90
2018-09-18T00:42:17.644Z,99.90
2018-09-18T00:44:44.865Z,99.90
2018-09-18T00:47:12.080Z,99.90
2018-09-18T00:49:39.275Z,99.90
2018-09-18T00:52:06.507Z,99.90
2018-09-18T00:54:33.692Z,99.90
2018-09-18T00:57:00.891Z,99.90
2018-09-18T00:59:28.114Z,99.90
2018-09-18T01:01:55.332Z,99.90
2018-09-18T01:04:22.523Z,99.90
2018-09-18T01:06:49.731Z,99.90
2018-09-18T01:09:16.965Z,99.90
2018-09-18T01:11:44.186Z,99.90
2018-09-18T01:14:12.451Z,99.90
2018-09-18T01:16:39.652Z,99.90
2018-09-18T01:19:07.101Z,99.90
2018-09-18T01:21:34.336Z,99.90
2018-09-18T01:24:01.562Z,99.90
2018-09-18T01:26:28.794Z,99.90
2018-09-18T01:28:56.196Z,99.90
2018-09-18T01:31:23.443Z,99.90
2018-09-18T01:33:50.645Z,99.90
2018-09-18T01:36:17.852Z,99.90
2018-09-18T01:38:45.103Z,99.90
2018-09-18T01:41:12.313Z,99.90
2018-09-18T01:43:39.539Z,99.90
2018-09-18T01:46:06.753Z,99.90
2018-09-18T01:48:33.935Z,99.90
2018-09-18T01:51:01.167Z,99.90
2018-09-18T01:53:28.367Z,99.90
2018-09-18T01:55:55.579Z,99.90
2018-09-18T01:58:22.788Z,99.90
2018-09-18T02:00:49.984Z,99.90
2018-09-18T02:03:17.280Z,99.90
2018-09-18T02:05:44.488Z,99.90
2018-09-18T02:08:11.691Z,99.90
2018-09-18T02:10:38.901Z,99.90
2018-09-18T02:13:06.117Z,99.90
2018-09-18T02:15:33.371Z,99.90
2018-09-18T02:18:00.556Z,99.90
2018-09-18T02:20:27.796Z,99.90
2018-09-18T02:22:55.068Z,99.90
2018-09-18T02:25:22.287Z,99.90
2018-09-18T02:27:49.492Z,99.90
2018-09-18T02:30:16.694Z,99.90
2018-09-18T02:32:44.012Z,99.90
2018-09-18T02:35:11.264Z,99.90
2018-09-18T02:37:38.497Z,99.90
2018-09-18T02:40:06.107Z,99.90
2018-09-18T02:42:33.356Z,99.90
2018-09-18T02:45:00.605Z,99.90
2018-09-18T02:47:27.820Z,99.90
2018-09-18T02:49:55.103Z,99.90
2018-09-18T02:52:22.410Z,99.90
2018-09-18T02:54:49.632Z,99.90
2018-09-18T02:57:16.832Z,99.90
2018-09-18T02:59:44.044Z,99.90
2018-09-18T03:02:11.308Z,99.90
2018-09-18T03:04:38.584Z,99.90
2018-09-18T03:07:05.810Z,99.90
2018-09-18T03:09:33.026Z,99.90
2018-09-18T03:12:00.367Z,99.90
2018-09-18T03:14:27.560Z,99.90
2018-09-18T03:16:54.777Z,99.90
2018-09-18T03:19:22.012Z,99.90
2018-09-18T03:21:49.234Z,99.90
2018-09-18T03:24:16.443Z,99.90
2018-09-18T03:26:43.659Z,99.90
2018-09-18T03:29:10.943Z,99.90
2018-09-18T03:31:38.144Z,99.90
2018-09-18T03:34:05.397Z,99.90
2018-09-18T03:36:32.669Z,99.90
2018-09-18T03:38:59.881Z,99.90
2018-09-18T03:41:27.101Z,99.90
2018-09-18T03:43:55.667Z,99.90
2018-09-18T03:46:22.848Z,99.90
2018-09-18T03:48:50.046Z,99.90
2018-09-18T03:51:17.253Z,99.90
2018-09-18T03:53:44.453Z,99.90
2018-09-18T03:56:11.659Z,99.90
2018-09-18T03:58:38.876Z,99.90
2018-09-18T04:01:06.068Z,99.90
2018-09-18T04:03:33.288Z,99.90
2018-09-18T04:06:00.524Z,99.90
2018-09-18T04:08:27.771Z,99.90
2018-09-18T04:10:55.033Z,99.90
2018-09-18T04:13:22.228Z,99.90
2018-09-18T04:15:49.464Z,99.90
2018-09-18T04:18:19.185Z,99.90
2018-09-18T04:20:46.396Z,99.90
2018-09-18T04:23:13.612Z,99.90
2018-09-18T04:25:40.937Z,99.90
2018-09-18T04:28:08.153Z,99.90
2018-09-18T04:30:35.406Z,99.90
2018-09-18T04:33:02.629Z,99.90
2018-09-18T04:35:29.856Z,99.90
2018-09-18T04:37:57.193Z,99.90
2018-09-18T04:40:24.429Z,99.90
2018-09-18T04:42:52.638Z,99.90
2018-09-18T04:45:19.839Z,99.90
2018-09-18T04:47:47.040Z,99.90
2018-09-18T04:50:14.276Z,99.90
2018-09-18T04:52:41.507Z,99.90
2018-09-18T04:55:08.732Z,99.90
2018-09-18T04:57:35.980Z,99.90
2018-09-18T05:00:03.872Z,99.90
2018-09-18T05:02:31.116Z,99.90
2018-09-18T05:04:58.897Z,99.90
2018-09-18T05:07:26.122Z,99.90
2018-09-18T05:09:53.337Z,99.90
2018-09-18T05:12:20.540Z,99.90
2018-09-18T05:14:47.747Z,99.90
2018-09-18T05:17:14.932Z,99.90
2018-09-18T05:19:42.120Z,99.90
2018-09-18T05:22:09.328Z,99.90
2018-09-18T05:24:36.556Z,99.90
2018-09-18T05:27:03.791Z,99.90
2018-09-18T05:29:30.991Z,99.90
2018-09-18T05:31:58.213Z,99.90
2018-09-18T05:34:25.532Z,99.90
2018-09-18T05:36:52.753Z,99.90
2018-09-18T05:39:19.977Z,99.90
2018-09-18T05:41:47.212Z,99.90
2018-09-18T05:44:14.456Z,99.90
2018-09-18T05:46:41.711Z,99.90
2018-09-18T05:49:08.948Z,99.90
2018-09-18T05:51:36.185Z,99.90
2018-09-18T05:54:03.448Z,99.90
2018-09-18T05:56:30.688Z,99.90
2018-09-18T05:58:57.932Z,99.90
2018-09-18T06:01:26.340Z,99.90
2018-09-18T06:03:53.540Z,99.90
2018-09-18T06:06:20.750Z,99.90
2018-09-18T06:08:48.028Z,99.90
2018-09-18T06:11:15.257Z,99.90
2018-09-18T06:13:42.488Z,99.90
2018-09-18T06:16:09.931Z,99.90
2018-09-18T06:18:37.148Z,99.90
2018-09-18T06:21:04.388Z,99.90
2018-09-18T06:23:31.644Z,99.90
2018-09-18T06:25:58.843Z,99.90
2018-09-18T06:28:27.075Z,99.90
2018-09-18T06:30:54.335Z,99.90
2018-09-18T06:33:21.581Z,99.90
2018-09-18T06:35:49.112Z,99.90
2018-09-18T06:38:16.318Z,99.90
2018-09-18T06:40:43.507Z,99.90
2018-09-18T06:43:10.732Z,99.90
2018-09-18T06:45:37.939Z,99.90
2018-09-18T06:48:05.284Z,99.90
2018-09-18T06:50:32.408Z,99.90
2018-09-18T06:52:59.621Z,99.90
2018-09-18T06:55:26.844Z,99.90
2018-09-18T06:57:54.048Z,99.90
2018-09-18T07:00:21.231Z,99.90
2018-09-18T07:02:48.471Z,99.90
2018-09-18T07:05:15.783Z,99.90
2018-09-18T07:07:42.987Z,99.90
2018-09-18T07:10:10.245Z,99.90
2018-09-18T07:12:37.428Z,99.90
2018-09-18T07:15:04.953Z,99.90
2018-09-18T07:17:32.187Z,99.90
2018-09-18T07:19:59.423Z,99.90
2018-09-18T07:22:26.661Z,99.90
2018-09-18T07:24:53.932Z,99.90
2018-09-18T07:27:21.097Z,99.90
2018-09-18T07:29:48.327Z,99.90
2018-09-18T07:32:15.532Z,99.90
2018-09-18T07:34:42.753Z,99.90
2018-09-18T07:37:09.971Z,99.90
2018-09-18T07:39:37.188Z,99.90
2018-09-18T07:42:04.399Z,99.90
2018-09-18T07:44:31.607Z,99.90
2018-09-18T07:46:58.821Z,99.90
2018-09-18T07:49:26.012Z,99.90
2018-09-18T07:51:53.225Z,99.90
2018-09-18T07:54:20.567Z,99.90
2018-09-18T07:56:47.859Z,99.90
2018-09-18T07:59:15.764Z,99.90
2018-09-18T08:01:43.455Z,99.90
2018-09-18T08:04:10.660Z,99.90
2018-09-18T08:06:37.888Z,99.90
2018-09-18T08:09:07.816Z,99.90
2018-09-18T08:11:35.027Z,99.90
2018-09-18T08:14:02.252Z,99.90
2018-09-18T08:16:29.480Z,99.90
2018-09-18T08:18:56.798Z,99.90
2018-09-18T08:21:23.969Z,99.90
2018-09-18T08:23:51.167Z,99.90
2018-09-18T08:26:18.366Z,99.90
2018-09-18T08:28:45.928Z,99.90
2018-09-18T08:31:13.129Z,99.90
2018-09-18T08:33:40.357Z,99.90
2018-09-18T08:36:07.567Z,99.90
2018-09-18T08:38:35.171Z,99.90
2018-09-18T08:41:02.631Z,99.90
2018-09-18T08:43:29.873Z,99.90
2018-09-18T08:45:57.115Z,99.90
2018-09-18T08:48:28.916Z,99.90
2018-09-18T08:50:56.460Z,99.90
2018-09-18T08:53:23.749Z,99.90
2018-09-18T08:55:51.021Z,99.90
2018-09-18T08:58:18.234Z,99.90
2018-09-18T09:00:45.461Z,99.90
2018-09-18T09:03:12.737Z,99.90
2018-09-18T09:05:39.960Z,99.90
2018-09-18T09:08:07.742Z,99.90
2018-09-18T09:10:34.954Z,99.90
2018-09-18T09:13:02.089Z,99.90
2018-09-18T09:15:29.386Z,99.90
2018-09-18T09:17:56.735Z,99.90
2018-09-18T09:20:23.829Z,99.90
2018-09-18T09:22:51.164Z,99.90
2018-09-18T09:25:18.319Z,99.90
2018-09-18T09:27:45.548Z,99.90
2018-09-18T09:30:12.914Z,99.90
2018-09-18T09:32:39.987Z,99.90
2018-09-18T09:35:07.167Z,99.90
2018-09-18T09:37:34.446Z,99.90
2018-09-18T09:40:01.637Z,99.90
2018-09-18T09:42:28.872Z,99.90
2018-09-18T09:44:56.309Z,99.90
2018-09-18T09:47:23.641Z,99.90
2018-09-18T09:49:51.437Z,99.90
2018-09-18T09:52:18.632Z,99.90
2018-09-18T09:54:45.871Z,99.90
2018-09-18T09:57:13.092Z,99.90
2018-09-18T09:59:40.300Z,99.90
2018-09-18T10:02:13.412Z,99.90
2018-09-18T10:04:40.609Z,99.90
2018-09-18T10:07:07.859Z,99.90
2018-09-18T10:09:35.055Z,99.90
2018-09-18T10:12:02.244Z,99.90
2018-09-18T10:14:29.444Z,99.90
2018-09-18T10:16:56.646Z,99.90
2018-09-18T10:19:23.848Z,99.90
2018-09-18T10:21:51.100Z,99.90
2018-09-18T10:24:18.324Z,99.90
2018-09-18T10:26:45.540Z,99.90
2018-09-18T10:29:12.782Z,99.90
2018-09-18T10:31:39.993Z,99.90
2018-09-18T10:34:07.261Z,99.90
2018-09-18T10:36:34.464Z,99.90
2018-09-18T10:39:01.679Z,99.90
2018-09-18T10:41:29.033Z,99.90
2018-09-18T10:43:56.183Z,99.90
2018-09-18T10:46:23.410Z,99.90
2018-09-18T10:48:52.142Z,99.90
2018-09-18T10:51:19.724Z,99.90
2018-09-18T10:53:46.916Z,99.90
2018-09-18T10:56:14.127Z,99.90
2018-09-18T10:58:41.350Z,99.90
2018-09-18T11:01:08.752Z,99.90
2018-09-18T11:03:36.172Z,99.90
2018-09-18T11:06:03.520Z,99.90
2018-09-18T11:08:30.743Z,99.90
2018-09-18T11:10:57.881Z,99.90
2018-09-18T11:13:25.167Z,99.90
2018-09-18T11:15:52.457Z,99.90
2018-09-18T11:18:19.669Z,99.90
2018-09-18T11:20:46.958Z,99.90
2018-09-18T11:23:14.096Z,99.90
2018-09-18T11:25:41.307Z,99.90
2018-09-18T11:28:08.543Z,99.90
2018-09-18T11:30:35.723Z,99.90
2018-09-18T11:33:03.016Z,99.90
2018-09-18T11:35:30.181Z,99.90
2018-09-18T11:37:57.420Z,99.90
2018-09-18T11:40:24.645Z,99.90
2018-09-18T11:42:51.840Z,99.90
2018-09-18T11:45:19.080Z,99.90
2018-09-18T11:47:46.332Z,99.90
2018-09-18T11:50:13.532Z,99.90
2018-09-18T11:52:41.802Z,99.90
2018-09-18T11:55:08.985Z,99.90
2018-09-18T11:57:36.193Z,99.90
2018-09-18T12:00:03.444Z,99.90
2018-09-18T12:02:30.652Z,99.90
2018-09-18T12:04:57.935Z,99.90
2018-09-18T12:07:25.169Z,99.90
2018-09-18T12:09:52.365Z,99.90
2018-09-18T12:12:19.578Z,99.90
2018-09-18T12:14:46.768Z,99.90
2018-09-18T12:17:14.189Z,99.90
2018-09-18T12:19:41.384Z,99.90
2018-09-18T12:22:08.600Z,99.90
2018-09-18T12:24:35.811Z,99.90
2018-09-18T12:27:03.088Z,98.30
2018-09-18T12:29:30.356Z,98.70
2018-09-18T12:31:57.557Z,98.90
2018-09-18T12:34:24.753Z,99.50
2018-09-18T12:36:51.964Z,97.40
2018-09-18T12:39:19.204Z,97.10
2018-09-18T12:41:46.487Z,95.40
2018-09-18T12:44:13.632Z,93.70
2018-09-18T12:46:40.821Z,91.30
2018-09-18T12:49:08.274Z,90.60
2018-09-18T12:51:35.440Z,90.10
2018-09-18T12:54:02.711Z,88.60
2018-09-18T12:56:29.921Z,89.10
2018-09-18T12:58:57.264Z,84.40
2018-09-18T13:01:25.372Z,83.20
2018-09-18T13:03:52.581Z,80.20
2018-09-18T13:06:19.960Z,81.20
2018-09-18T13:08:47.000Z,82.00
2018-09-18T13:11:14.428Z,84.90
2018-09-18T13:13:41.684Z,85.30
2018-09-18T13:16:08.932Z,81.40
2018-09-18T13:18:36.069Z,80.30
2018-09-18T13:21:03.325Z,76.90
2018-09-18T13:23:30.538Z,75.30
2018-09-18T13:25:57.786Z,71.30
2018-09-18T13:28:24.984Z,76.30
2018-09-18T13:30:52.196Z,71.60
2018-09-18T13:33:19.430Z,71.20
2018-09-18T13:35:46.604Z,73.80
2018-09-18T13:38:13.826Z,73.50
2018-09-18T13:40:41.004Z,73.10
2018-09-18T13:43:08.240Z,70.20
2018-09-18T13:45:35.461Z,70.70
2018-09-18T13:48:02.663Z,72.60
2018-09-18T13:50:29.998Z,70.00
2018-09-18T13:52:57.454Z,75.10
2018-09-18T13:55:24.721Z,76.20
2018-09-18T13:57:51.955Z,76.50
2018-09-18T14:00:19.165Z,72.80
2018-09-18T14:02:46.364Z,75.60
2018-09-18T14:05:13.565Z,75.70
2018-09-18T14:07:40.797Z,75.90
2018-09-18T14:10:10.612Z,77.70
2018-09-18T14:12:37.848Z,77.50
2018-09-18T14:15:05.119Z,77.70
2018-09-18T14:17:32.708Z,78.10
2018-09-18T14:19:59.896Z,79.30
2018-09-18T14:22:27.092Z,79.50
2018-09-18T14:24:54.290Z,77.20
2018-09-18T14:27:21.508Z,77.40
2018-09-18T14:29:48.721Z,73.50
2018-09-18T14:32:15.910Z,72.50
2018-09-18T14:34:43.116Z,73.60
2018-09-18T14:37:10.286Z,77.90
2018-09-18T14:39:37.620Z,74.10
2018-09-18T14:42:04.847Z,75.70
2018-09-18T14:44:32.068Z,77.00
2018-09-18T14:46:59.282Z,73.80
2018-09-18T14:49:26.477Z,74.30
2018-09-18T14:51:53.696Z,72.80
2018-09-18T14:54:20.917Z,74.90
2018-09-18T14:56:48.136Z,81.30
2018-09-18T14:59:15.345Z,82.70
2018-09-18T15:01:42.548Z,84.40
2018-09-18T15:04:10.765Z,84.20
2018-09-18T15:06:38.000Z,84.70
2018-09-18T15:09:07.148Z,83.00
2018-09-18T15:11:34.404Z,82.60
2018-09-18T15:14:01.668Z,88.30
2018-09-18T15:16:28.856Z,93.00
2018-09-18T15:18:56.140Z,91.70
2018-09-18T15:21:23.315Z,94.40
2018-09-18T15:23:50.545Z,94.70
2018-09-18T15:26:17.740Z,94.60
2018-09-18T15:28:45.976Z,96.10
2018-09-18T15:31:13.170Z,97.00
2018-09-18T15:33:40.430Z,97.00
2018-09-18T15:36:07.596Z,97.20
2018-09-18T15:38:34.821Z,96.80
2018-09-18T15:41:02.001Z,98.50
2018-09-18T15:43:29.239Z,96.20
2018-09-18T15:45:56.532Z,97.50
2018-09-18T15:48:23.709Z,97.10
2018-09-18T15:50:50.876Z,96.50
2018-09-18T15:53:18.127Z,98.00
2018-09-18T15:55:47.448Z,97.00
2018-09-18T15:58:14.688Z,96.60
2018-09-18T16:00:41.902Z,97.50
2018-09-18T16:03:09.117Z,98.10
2018-09-18T16:05:36.358Z,98.20
2018-09-18T16:08:03.634Z,99.60
2018-09-18T16:10:30.884Z,99.30
2018-09-18T16:12:58.065Z,98.70
2018-09-18T16:15:25.306Z,99.10
2018-09-18T16:17:52.508Z,98.30
2018-09-18T16:20:20.315Z,99.50
2018-09-18T16:22:47.599Z,99.40
2018-09-18T16:25:14.759Z,99.40
2018-09-18T16:27:41.971Z,99.90
2018-09-18T16:30:09.206Z,99.90
2018-09-18T16:32:36.410Z,99.90
2018-09-18T16:35:03.715Z,99.90
2018-09-18T16:37:30.969Z,99.90
2018-09-18T16:39:58.204Z,99.90
2018-09-18T16:42:25.513Z,99.90
2018-09-18T16:44:53.078Z,99.90
2018-09-18T16:47:20.292Z,99.90
2018-09-18T16:49:47.493Z,99.90
2018-09-18T16:52:14.772Z,99.90
2018-09-18T16:54:42.165Z,99.90
2018-09-18T16:57:10.304Z,99.90
2018-09-18T16:59:37.499Z,99.90
2018-09-18T17:02:04.743Z,99.90
2018-09-18T17:04:31.970Z,99.90
2018-09-18T17:06:59.181Z,99.90
2018-09-18T17:09:26.380Z,99.90
2018-09-18T17:11:53.614Z,99.90
2018-09-18T17:14:20.804Z,99.90
2018-09-18T17:16:48.428Z,99.90
2018-09-18T17:19:15.636Z,99.90
2018-09-18T17:21:42.905Z,99.90
2018-09-18T17:24:10.130Z,99.90
2018-09-18T17:26:37.828Z,99.90
2018-09-18T17:29:05.083Z,99.90
2018-09-18T17:31:32.280Z,99.90
2018-09-18T17:33:59.472Z,99.90
2018-09-18T17:36:26.703Z,99.90
2018-09-18T17:38:53.915Z,99.90
2018-09-18T17:41:21.135Z,99.90
2018-09-18T17:43:48.345Z,99.90
2018-09-18T17:46:15.606Z,99.90
2018-09-18T17:48:42.860Z,99.90
2018-09-18T17:51:10.083Z,99.90
2018-09-18T17:53:37.383Z,99.90
2018-09-18T17:56:04.560Z,99.90
2018-09-18T17:58:31.823Z,99.90
2018-09-18T18:00:59.022Z,99.90
2018-09-18T18:03:26.233Z,99.90
2018-09-18T18:05:53.506Z,99.90
2018-09-18T18:08:20.742Z,99.90
2018-09-18T18:10:48.022Z,99.90
2018-09-18T18:13:15.208Z,99.90
2018-09-18T18:15:42.424Z,99.90
2018-09-18T18:18:09.644Z,99.90
2018-09-18T18:20:37.055Z,99.90
2018-09-18T18:23:04.181Z,99.90
2018-09-18T18:25:31.391Z,99.90
2018-09-18T18:27:58.608Z,99.90
2018-09-18T18:30:25.871Z,99.90
2018-09-18T18:32:53.112Z,99.90
2018-09-18T18:35:20.391Z,99.90
2018-09-18T18:37:47.572Z,99.90
2018-09-18T18:40:14.828Z,99.90
2018-09-18T18:42:42.049Z,99.90
2018-09-18T18:45:09.282Z,99.90
2018-09-18T18:47:36.573Z,99.90
2018-09-18T18:50:03.759Z,99.90
2018-09-18T18:52:30.984Z,99.90
2018-09-18T18:54:58.213Z,99.90
2018-09-18T18:57:25.445Z,99.90
2018-09-18T18:59:52.652Z,99.90
2018-09-18T19:02:19.901Z,99.90
2018-09-18T19:04:47.647Z,99.90
2018-09-18T19:07:14.897Z,99.90
2018-09-18T19:09:42.107Z,99.90
2018-09-18T19:12:09.366Z,99.90
2018-09-18T19:14:36.556Z,99.90
2018-09-18T19:17:03.817Z,99.90
2018-09-18T19:19:31.030Z,99.90
2018-09-18T19:21:58.248Z,99.90
2018-09-18T19:24:25.449Z,99.90
2018-09-18T19:26:52.642Z,99.90
2018-09-18T19:29:19.844Z,99.90
2018-09-18T19:31:47.053Z,99.90
2018-09-18T19:34:14.275Z,99.90
2018-09-18T19:36:41.636Z,99.90
2018-09-18T19:39:09.599Z,99.90
2018-09-18T19:41:36.823Z,99.90
2018-09-18T19:44:04.024Z,99.90
2018-09-18T19:46:31.252Z,99.90
2018-09-18T19:48:58.452Z,99.90
2018-09-18T19:51:25.676Z,99.90
2018-09-18T19:53:52.887Z,99.90
2018-09-18T19:56:20.127Z,99.90
2018-09-18T19:58:47.402Z,99.90
2018-09-18T20:01:14.626Z,99.90
2018-09-18T20:03:41.826Z,99.90
2018-09-18T20:06:09.091Z,99.90
2018-09-18T20:08:36.309Z,99.90
2018-09-18T20:11:03.567Z,99.90
2018-09-18T20:13:30.753Z,99.90
2018-09-18T20:15:57.989Z,99.90
2018-09-18T20:18:25.230Z,99.90
2018-09-18T20:20:52.479Z,99.90
2018-09-18T20:23:19.681Z,99.90
2018-09-18T20:25:47.297Z,99.90
2018-09-18T20:28:14.491Z,99.90
2018-09-18T20:30:41.703Z,99.90
2018-09-18T20:33:08.922Z,99.90
2018-09-18T20:35:36.157Z,99.90
2018-09-18T20:38:03.391Z,99.90
2018-09-18T20:40:30.612Z,99.90
2018-09-18T20:42:57.849Z,99.90
2018-09-18T20:45:25.088Z,99.90
2018-09-18T20:47:52.308Z,99.90
2018-09-18T20:50:21.720Z,99.90
2018-09-18T20:52:50.010Z,99.90
2018-09-18T20:55:17.232Z,99.90
2018-09-18T20:57:44.428Z,99.90
2018-09-18T21:00:11.696Z,99.90
2018-09-18T21:02:38.916Z,99.90
2018-09-18T21:05:06.214Z,99.90
2018-09-18T21:07:33.432Z,99.90
2018-09-18T21:10:00.685Z,99.90
2018-09-18T21:12:28.676Z,99.90
2018-09-18T21:14:56.007Z,99.90
2018-09-18T21:17:23.233Z,99.90
2018-09-18T21:19:50.459Z,99.90
2018-09-18T21:22:17.725Z,99.90
2018-09-18T21:24:44.983Z,99.90
2018-09-18T21:27:12.201Z,99.90
2018-09-18T21:29:39.440Z,99.90
2018-09-18T21:32:06.671Z,99.90
2018-09-18T21:34:33.889Z,99.90
2018-09-18T21:37:01.139Z,99.90
2018-09-18T21:39:28.353Z,99.90
2018-09-18T21:41:55.605Z,99.90
2018-09-18T21:44:22.823Z,99.90
2018-09-18T21:46:50.049Z,99.90
2018-09-18T21:49:17.268Z,99.90
2018-09-18T21:51:44.525Z,99.90
2018-09-18T21:54:11.771Z,99.90
2018-09-18T21:56:38.980Z,99.90
2018-09-18T21:59:06.216Z,99.90
2018-09-18T22:01:33.428Z,99.90
2018-09-18T22:04:00.682Z,99.90
2018-09-18T22:06:27.906Z,99.90
2018-09-18T22:08:55.118Z,99.90
2018-09-18T22:11:22.352Z,99.90
2018-09-18T22:13:49.578Z,99.90
2018-09-18T22:16:16.779Z,99.90
2018-09-18T22:18:43.958Z,99.90
2018-09-18T22:21:11.163Z,99.90
2018-09-18T22:23:38.360Z,99.90
2018-09-18T22:26:05.552Z,99.90
2018-09-18T22:28:32.765Z,99.90
2018-09-18T22:30:59.962Z,99.90
2018-09-18T22:33:27.156Z,99.90
2018-09-18T22:35:54.350Z,99.90
2018-09-18T22:38:21.564Z,99.90
2018-09-18T22:40:48.765Z,99.90
2018-09-18T22:43:15.968Z,99.90
2018-09-18T22:45:44.164Z,99.90
2018-09-18T22:48:11.371Z,99.90
2018-09-18T22:50:38.565Z,99.90
2018-09-18T22:53:05.799Z,99.90
2018-09-18T22:55:33.001Z,99.90
2018-09-18T22:58:00.207Z,99.90
2018-09-18T23:00:27.401Z,99.90
2018-09-18T23:02:54.637Z,99.90
2018-09-18T23:05:21.828Z,99.90
2018-09-18T23:07:49.037Z,99.90
2018-09-18T23:10:16.253Z,99.90
2018-09-18T23:12:43.485Z,99.90
2018-09-18T23:15:10.720Z,99.90
2018-09-18T23:17:37.944Z,99.90
2018-09-18T23:20:05.331Z,99.90
2018-09-18T23:22:32.523Z,99.90
2018-09-18T23:24:59.722Z,99.90
2018-09-18T23:27:26.916Z,99.90
2018-09-18T23:29:54.145Z,99.90
2018-09-18T23:32:21.348Z,99.90
2018-09-18T23:34:48.552Z,99.90
2018-09-18T23:37:15.746Z,99.90
2018-09-18T23:39:42.973Z,99.90
2018-09-18T23:42:10.182Z,99.90
2018-09-18T23:44:37.420Z,99.90
2018-09-18T23:47:04.644Z,99.90
2018-09-18T23:49:31.874Z,99.90
2018-09-18T23:51:59.114Z,99.90
2018-09-18T23:54:26.561Z,99.90
2018-09-18T23:56:53.765Z,99.90
2018-09-18T23:59:21.094Z,99.90
